sensor_id;sensor_type;location;lat;lon;timestamp;temperature;humidity
9193;DHT22;4631;49.296;10.560;2023-06-01T00:00:32;14.90;99.90
9193;DHT22;4631;49.296;10.560;2023-06-01T00:02:58;14.90;99.90
9193;DHT22;4631;49.296;10.560;2023-06-01T00:05:25;14.80;99.90
9193;DHT22;4631;49.296;10.560;2023-06-01T00:07:51;14.80;99.90
9193;DHT22;4631;49.296;10.560;2023-06-01T00:10:18;14.80;99.90
9193;DHT22;4631;49.296;10.560;2023-06-01T00:12:46;14.70;99.90
9193;DHT22;4631;49.296;10.560;2023-06-01T00:15:13;14.70;99.90
9193;DHT22;4631;49.296;10.560;2023-06-01T00:17:39;14.70;99.90
9193;DHT22;4631;49.296;10.560;2023-06-01T00:20:06;14.70;99.90
9193;DHT22;4631;49.296;10.560;2023-06-01T00:22:34;14.60;99.90
9193;DHT22;4631;49.296;10.560;2023-06-01T00:25:04;14.60;99.90
9193;DHT22;4631;49.296;10.560;2023-06-01T00:27:31;14.50;99.90
9193;DHT22;4631;49.296;10.560;2023-06-01T00:29:59;14.50;99.90
9193;DHT22;4631;49.296;10.560;2023-06-01T00:32:26;14.40;99.90
9193;DHT22;4631;49.296;10.560;2023-06-01T00:34:52;14.40;99.90
9193;DHT22;4631;49.296;10.560;2023-06-01T00:37:19;14.40;99.90
9193;DHT22;4631;49.296;10.560;2023-06-01T00:39:45;14.30;99.90
9193;DHT22;4631;49.296;10.560;2023-06-01T00:42:12;14.30;99.90
9193;DHT22;4631;49.296;10.560;2023-06-01T00:44:39;14.20;99.90
9193;DHT22;4631;49.296;10.560;2023-06-01T00:47:07;14.20;99.90
9193;DHT22;4631;49.296;10.560;2023-06-01T00:49:33;14.20;99.90
9193;DHT22;4631;49.296;10.560;2023-06-01T00:52:00;14.20;99.90
9193;DHT22;4631;49.296;10.560;2023-06-01T00:54:27;14.10;99.90
9193;DHT22;4631;49.296;10.560;2023-06-01T00:56:54;14.10;99.90
9193;DHT22;4631;49.296;10.560;2023-06-01T00:59:21;14.10;99.90
9193;DHT22;4631;49.296;10.560;2023-06-01T01:01:48;14.10;99.90
9193;DHT22;4631;49.296;10.560;2023-06-01T01:04:19;14.00;99.90
9193;DHT22;4631;49.296;10.560;2023-06-01T01:06:53;14.00;99.90
9193;DHT22;4631;49.296;10.560;2023-06-01T01:09:28;13.90;99.90
9193;DHT22;4631;49.296;10.560;2023-06-01T01:11:59;13.90;99.90
9193;DHT22;4631;49.296;10.560;2023-06-01T01:14:28;13.90;99.90
9193;DHT22;4631;49.296;10.560;2023-06-01T01:16:57;13.90;99.90
9193;DHT22;4631;49.296;10.560;2023-06-01T01:22:22;13.70;99.90
9193;DHT22;4631;49.296;10.560;2023-06-01T01:24:58;13.70;99.90
9193;DHT22;4631;49.296;10.560;2023-06-01T01:27:33;13.60;99.90
9193;DHT22;4631;49.296;10.560;2023-06-01T01:30:06;13.60;99.90
9193;DHT22;4631;49.296;10.560;2023-06-01T01:32:34;13.60;99.90
9193;DHT22;4631;49.296;10.560;2023-06-01T01:35:01;13.50;99.90
9193;DHT22;4631;49.296;10.560;2023-06-01T01:37:28;13.50;99.90
9193;DHT22;4631;49.296;10.560;2023-06-01T01:39:54;13.40;99.90
9193;DHT22;4631;49.296;10.560;2023-06-01T01:42:21;13.40;99.90
9193;DHT22;4631;49.296;10.560;2023-06-01T01:44:47;13.40;99.90
9193;DHT22;4631;49.296;10.560;2023-06-01T01:47:17;13.40;99.90
9193;DHT22;4631;49.296;10.560;2023-06-01T01:49:47;13.40;99.90
9193;DHT22;4631;49.296;10.560;2023-06-01T01:52:15;13.40;99.90
9193;DHT22;4631;49.296;10.560;2023-06-01T01:54:44;13.30;99.90
9193;DHT22;4631;49.296;10.560;2023-06-01T01:57:11;13.30;99.90
9193;DHT22;4631;49.296;10.560;2023-06-01T01:59:39;13.30;99.90
9193;DHT22;4631;49.296;10.560;2023-06-01T02:02:12;13.30;99.90
9193;DHT22;4631;49.296;10.560;2023-06-01T02:04:40;13.30;99.90
9193;DHT22;4631;49.296;10.560;2023-06-01T02:07:07;13.20;99.90
9193;DHT22;4631;49.296;10.560;2023-06-01T02:09:34;13.20;99.90
9193;DHT22;4631;49.296;10.560;2023-06-01T02:12:01;13.20;99.90
9193;DHT22;4631;49.296;10.560;2023-06-01T02:14:27;13.10;99.90
9193;DHT22;4631;49.296;10.560;2023-06-01T02:16:54;13.00;99.90
9193;DHT22;4631;49.296;10.560;2023-06-01T02:19:21;13.00;99.90
9193;DHT22;4631;49.296;10.560;2023-06-01T02:21:49;13.00;99.90
9193;DHT22;4631;49.296;10.560;2023-06-01T02:24:15;13.00;99.90
9193;DHT22;4631;49.296;10.560;2023-06-01T02:26:43;12.90;99.90
9193;DHT22;4631;49.296;10.560;2023-06-01T02:29:09;12.80;99.90
9193;DHT22;4631;49.296;10.560;2023-06-01T02:31:36;12.80;99.90
9193;DHT22;4631;49.296;10.560;2023-06-01T02:34:02;12.70;99.90
9193;DHT22;4631;49.296;10.560;2023-06-01T02:36:29;12.70;99.90
9193;DHT22;4631;49.296;10.560;2023-06-01T02:38:58;12.70;99.90
9193;DHT22;4631;49.296;10.560;2023-06-01T02:41:25;12.70;99.90
9193;DHT22;4631;49.296;10.560;2023-06-01T02:43:51;12.70;99.90
9193;DHT22;4631;49.296;10.560;2023-06-01T02:46:18;12.60;99.90
9193;DHT22;4631;49.296;10.560;2023-06-01T02:48:45;12.60;99.90
9193;DHT22;4631;49.296;10.560;2023-06-01T02:51:12;12.50;99.90
9193;DHT22;4631;49.296;10.560;2023-06-01T02:53:39;12.50;99.90
9193;DHT22;4631;49.296;10.560;2023-06-01T02:56:07;12.40;99.90
9193;DHT22;4631;49.296;10.560;2023-06-01T02:58:34;12.40;99.90
9193;DHT22;4631;49.296;10.560;2023-06-01T03:01:06;12.40;99.90
9193;DHT22;4631;49.296;10.560;2023-06-01T03:03:37;12.40;99.90
9193;DHT22;4631;49.296;10.560;2023-06-01T03:06:03;12.40;99.90
9193;DHT22;4631;49.296;10.560;2023-06-01T03:08:30;12.30;99.90
9193;DHT22;4631;49.296;10.560;2023-06-01T03:10:57;12.30;99.90
9193;DHT22;4631;49.296;10.560;2023-06-01T03:13:25;12.20;99.90
9193;DHT22;4631;49.296;10.560;2023-06-01T03:15:51;12.20;99.90
9193;DHT22;4631;49.296;10.560;2023-06-01T03:18:18;12.10;99.90
9193;DHT22;4631;49.296;10.560;2023-06-01T03:20:46;12.10;99.90
9193;DHT22;4631;49.296;10.560;2023-06-01T03:23:14;12.00;99.90
9193;DHT22;4631;49.296;10.560;2023-06-01T03:25:40;12.00;99.90
9193;DHT22;4631;49.296;10.560;2023-06-01T03:28:07;12.00;99.90
9193;DHT22;4631;49.296;10.560;2023-06-01T03:30:35;11.90;99.90
9193;DHT22;4631;49.296;10.560;2023-06-01T03:33:02;11.90;99.90
9193;DHT22;4631;49.296;10.560;2023-06-01T03:35:29;11.90;99.90
9193;DHT22;4631;49.296;10.560;2023-06-01T03:37:55;11.90;99.90
9193;DHT22;4631;49.296;10.560;2023-06-01T03:40:22;11.90;99.90
9193;DHT22;4631;49.296;10.560;2023-06-01T03:42:48;11.80;99.90
9193;DHT22;4631;49.296;10.560;2023-06-01T03:45:15;11.80;99.90
9193;DHT22;4631;49.296;10.560;2023-06-01T03:47:44;11.80;99.90
9193;DHT22;4631;49.296;10.560;2023-06-01T03:50:10;11.80;99.90
9193;DHT22;4631;49.296;10.560;2023-06-01T03:52:37;11.80;99.90
9193;DHT22;4631;49.296;10.560;2023-06-01T03:55:05;11.80;99.90
9193;DHT22;4631;49.296;10.560;2023-06-01T03:57:33;11.80;99.90
9193;DHT22;4631;49.296;10.560;2023-06-01T04:00:00;11.70;99.90
9193;DHT22;4631;49.296;10.560;2023-06-01T04:02:31;11.70;99.90
9193;DHT22;4631;49.296;10.560;2023-06-01T04:04:59;11.60;99.90
9193;DHT22;4631;49.296;10.560;2023-06-01T04:07:26;11.60;99.90
9193;DHT22;4631;49.296;10.560;2023-06-01T04:09:52;11.60;99.90
9193;DHT22;4631;49.296;10.560;2023-06-01T04:12:19;11.60;99.90
9193;DHT22;4631;49.296;10.560;2023-06-01T04:14:46;11.70;99.90
9193;DHT22;4631;49.296;10.560;2023-06-01T04:17:12;11.70;99.90
9193;DHT22;4631;49.296;10.560;2023-06-01T04:19:41;11.70;99.90
9193;DHT22;4631;49.296;10.560;2023-06-01T04:22:09;11.70;99.90
9193;DHT22;4631;49.296;10.560;2023-06-01T04:24:35;11.70;99.90
9193;DHT22;4631;49.296;10.560;2023-06-01T04:27:02;11.80;99.90
9193;DHT22;4631;49.296;10.560;2023-06-01T04:29:30;11.80;99.90
9193;DHT22;4631;49.296;10.560;2023-06-01T04:31:56;11.90;99.90
9193;DHT22;4631;49.296;10.560;2023-06-01T04:34:23;11.90;99.90
9193;DHT22;4631;49.296;10.560;2023-06-01T04:36:50;11.90;99.90
9193;DHT22;4631;49.296;10.560;2023-06-01T04:39:18;11.90;99.90
9193;DHT22;4631;49.296;10.560;2023-06-01T04:41:44;11.90;99.90
9193;DHT22;4631;49.296;10.560;2023-06-01T04:44:12;12.00;99.90
9193;DHT22;4631;49.296;10.560;2023-06-01T04:46:38;12.00;99.90
9193;DHT22;4631;49.296;10.560;2023-06-01T04:49:06;12.10;99.90
9193;DHT22;4631;49.296;10.560;2023-06-01T04:51:33;12.10;99.90
9193;DHT22;4631;49.296;10.560;2023-06-01T04:54:01;12.20;99.90
9193;DHT22;4631;49.296;10.560;2023-06-01T04:56:29;12.30;99.90
9193;DHT22;4631;49.296;10.560;2023-06-01T04:58:56;12.40;99.90
9193;DHT22;4631;49.296;10.560;2023-06-01T05:03:54;12.50;99.90
9193;DHT22;4631;49.296;10.560;2023-06-01T05:06:22;12.60;99.90
9193;DHT22;4631;49.296;10.560;2023-06-01T05:08:50;12.70;99.90
9193;DHT22;4631;49.296;10.560;2023-06-01T05:11:16;12.80;99.90
9193;DHT22;4631;49.296;10.560;2023-06-01T05:13:44;12.90;99.90
9193;DHT22;4631;49.296;10.560;2023-06-01T05:16:11;13.00;99.90
9193;DHT22;4631;49.296;10.560;2023-06-01T05:18:38;13.20;99.90
9193;DHT22;4631;49.296;10.560;2023-06-01T05:21:04;13.30;99.90
9193;DHT22;4631;49.296;10.560;2023-06-01T05:23:31;13.40;99.90
9193;DHT22;4631;49.296;10.560;2023-06-01T05:25:58;13.60;99.90
9193;DHT22;4631;49.296;10.560;2023-06-01T05:28:28;13.70;99.90
9193;DHT22;4631;49.296;10.560;2023-06-01T05:30:56;13.90;99.90
9193;DHT22;4631;49.296;10.560;2023-06-01T05:33:23;14.00;99.90
9193;DHT22;4631;49.296;10.560;2023-06-01T05:35:49;14.20;99.90
9193;DHT22;4631;49.296;10.560;2023-06-01T05:38:16;14.30;99.90
9193;DHT22;4631;49.296;10.560;2023-06-01T05:40:42;14.50;99.90
9193;DHT22;4631;49.296;10.560;2023-06-01T05:43:09;14.60;99.90
9193;DHT22;4631;49.296;10.560;2023-06-01T05:45:36;14.70;99.90
9193;DHT22;4631;49.296;10.560;2023-06-01T05:48:04;14.90;99.90
9193;DHT22;4631;49.296;10.560;2023-06-01T05:50:31;15.10;99.90
9193;DHT22;4631;49.296;10.560;2023-06-01T05:52:58;15.20;99.90
9193;DHT22;4631;49.296;10.560;2023-06-01T05:55:25;15.30;99.90
9193;DHT22;4631;49.296;10.560;2023-06-01T05:57:51;15.30;99.90
9193;DHT22;4631;49.296;10.560;2023-06-01T06:00:18;15.50;99.90
9193;DHT22;4631;49.296;10.560;2023-06-01T06:02:45;15.60;99.90
9193;DHT22;4631;49.296;10.560;2023-06-01T06:05:14;15.70;99.90
9193;DHT22;4631;49.296;10.560;2023-06-01T06:07:41;15.70;99.90
9193;DHT22;4631;49.296;10.560;2023-06-01T06:10:08;15.80;99.90
9193;DHT22;4631;49.296;10.560;2023-06-01T06:12:35;15.90;99.90
9193;DHT22;4631;49.296;10.560;2023-06-01T06:15:02;16.00;99.90
9193;DHT22;4631;49.296;10.560;2023-06-01T06:17:29;16.10;99.90
9193;DHT22;4631;49.296;10.560;2023-06-01T06:19:56;16.20;99.90
9193;DHT22;4631;49.296;10.560;2023-06-01T06:22:24;16.40;99.90
9193;DHT22;4631;49.296;10.560;2023-06-01T06:24:50;16.50;99.90
9193;DHT22;4631;49.296;10.560;2023-06-01T06:27:17;16.60;99.90
9193;DHT22;4631;49.296;10.560;2023-06-01T06:29:44;16.70;99.90
9193;DHT22;4631;49.296;10.560;2023-06-01T06:32:10;16.70;99.90
9193;DHT22;4631;49.296;10.560;2023-06-01T06:34:37;16.90;99.90
9193;DHT22;4631;49.296;10.560;2023-06-01T06:37:04;17.10;99.90
9193;DHT22;4631;49.296;10.560;2023-06-01T06:39:33;17.20;99.90
9193;DHT22;4631;49.296;10.560;2023-06-01T06:41:59;17.30;99.90
9193;DHT22;4631;49.296;10.560;2023-06-01T06:44:27;17.40;99.90
9193;DHT22;4631;49.296;10.560;2023-06-01T06:46:54;17.40;99.90
9193;DHT22;4631;49.296;10.560;2023-06-01T06:49:21;17.50;99.90
9193;DHT22;4631;49.296;10.560;2023-06-01T06:51:47;17.60;99.90
9193;DHT22;4631;49.296;10.560;2023-06-01T06:54:14;17.80;99.90
9193;DHT22;4631;49.296;10.560;2023-06-01T06:56:42;17.90;99.90
9193;DHT22;4631;49.296;10.560;2023-06-01T06:59:09;18.00;99.90
9193;DHT22;4631;49.296;10.560;2023-06-01T07:01:36;18.00;99.90
9193;DHT22;4631;49.296;10.560;2023-06-01T07:04:03;18.20;99.90
9193;DHT22;4631;49.296;10.560;2023-06-01T07:06:29;18.30;99.90
9193;DHT22;4631;49.296;10.560;2023-06-01T07:08:57;18.30;99.90
9193;DHT22;4631;49.296;10.560;2023-06-01T07:11:24;18.40;99.90
9193;DHT22;4631;49.296;10.560;2023-06-01T07:13:53;18.50;99.90
9193;DHT22;4631;49.296;10.560;2023-06-01T07:16:22;18.50;99.90
9193;DHT22;4631;49.296;10.560;2023-06-01T07:18:49;18.70;99.90
9193;DHT22;4631;49.296;10.560;2023-06-01T07:21:16;18.70;99.90
9193;DHT22;4631;49.296;10.560;2023-06-01T07:23:44;18.80;99.90
9193;DHT22;4631;49.296;10.560;2023-06-01T07:26:11;18.90;99.90
9193;DHT22;4631;49.296;10.560;2023-06-01T07:28:37;19.00;99.90
9193;DHT22;4631;49.296;10.560;2023-06-01T07:31:05;19.10;99.90
9193;DHT22;4631;49.296;10.560;2023-06-01T07:33:32;19.20;99.90
9193;DHT22;4631;49.296;10.560;2023-06-01T07:36:01;19.30;99.90
9193;DHT22;4631;49.296;10.560;2023-06-01T07:38:28;19.40;99.90
9193;DHT22;4631;49.296;10.560;2023-06-01T07:40:55;19.40;99.90
9193;DHT22;4631;49.296;10.560;2023-06-01T07:43:21;19.50;99.90
9193;DHT22;4631;49.296;10.560;2023-06-01T07:45:48;19.50;99.90
9193;DHT22;4631;49.296;10.560;2023-06-01T07:48:16;19.60;99.90
9193;DHT22;4631;49.296;10.560;2023-06-01T07:50:43;19.60;99.90
9193;DHT22;4631;49.296;10.560;2023-06-01T07:53:09;19.80;99.90
9193;DHT22;4631;49.296;10.560;2023-06-01T07:55:36;19.80;99.90
9193;DHT22;4631;49.296;10.560;2023-06-01T07:58:03;20.00;99.90
9193;DHT22;4631;49.296;10.560;2023-06-01T08:00:30;20.00;99.90
9193;DHT22;4631;49.296;10.560;2023-06-01T08:02:57;20.10;99.90
9193;DHT22;4631;49.296;10.560;2023-06-01T08:05:25;20.10;99.90
9193;DHT22;4631;49.296;10.560;2023-06-01T08:07:52;20.20;99.90
9193;DHT22;4631;49.296;10.560;2023-06-01T08:10:22;20.20;99.90
9193;DHT22;4631;49.296;10.560;2023-06-01T08:12:48;20.30;99.90
9193;DHT22;4631;49.296;10.560;2023-06-01T08:15:15;20.50;99.90
9193;DHT22;4631;49.296;10.560;2023-06-01T08:17:42;20.60;99.90
9193;DHT22;4631;49.296;10.560;2023-06-01T08:20:10;20.70;99.90
9193;DHT22;4631;49.296;10.560;2023-06-01T08:22:39;20.70;99.90
9193;DHT22;4631;49.296;10.560;2023-06-01T08:25:07;20.70;99.90
9193;DHT22;4631;49.296;10.560;2023-06-01T08:27:33;20.80;99.90
9193;DHT22;4631;49.296;10.560;2023-06-01T08:30:00;20.90;99.90
9193;DHT22;4631;49.296;10.560;2023-06-01T08:32:27;20.90;99.90
9193;DHT22;4631;49.296;10.560;2023-06-01T08:34:53;21.00;99.90
9193;DHT22;4631;49.296;10.560;2023-06-01T08:37:20;21.10;99.90
9193;DHT22;4631;49.296;10.560;2023-06-01T08:39:48;21.20;99.90
9193;DHT22;4631;49.296;10.560;2023-06-01T08:42:15;21.20;99.90
9193;DHT22;4631;49.296;10.560;2023-06-01T08:44:46;21.30;99.90
9193;DHT22;4631;49.296;10.560;2023-06-01T08:47:12;21.40;99.90
9193;DHT22;4631;49.296;10.560;2023-06-01T08:49:40;21.50;99.90
9193;DHT22;4631;49.296;10.560;2023-06-01T08:52:08;21.50;99.90
9193;DHT22;4631;49.296;10.560;2023-06-01T08:54:37;21.60;99.90
9193;DHT22;4631;49.296;10.560;2023-06-01T08:57:06;21.70;99.90
9193;DHT22;4631;49.296;10.560;2023-06-01T08:59:33;21.70;99.90
9193;DHT22;4631;49.296;10.560;2023-06-01T09:02:01;21.70;99.90
9193;DHT22;4631;49.296;10.560;2023-06-01T09:04:28;21.80;99.90
9193;DHT22;4631;49.296;10.560;2023-06-01T09:06:56;21.90;98.40
9193;DHT22;4631;49.296;10.560;2023-06-01T09:09:22;21.90;99.90
9193;DHT22;4631;49.296;10.560;2023-06-01T09:11:56;22.10;98.00
9193;DHT22;4631;49.296;10.560;2023-06-01T09:14:39;22.10;98.10
9193;DHT22;4631;49.296;10.560;2023-06-01T09:17:06;22.20;98.60
9193;DHT22;4631;49.296;10.560;2023-06-01T09:19:41;22.30;97.10
9193;DHT22;4631;49.296;10.560;2023-06-01T09:22:08;22.40;93.80
9193;DHT22;4631;49.296;10.560;2023-06-01T09:24:35;22.40;95.10
9193;DHT22;4631;49.296;10.560;2023-06-01T09:27:02;22.40;95.00
9193;DHT22;4631;49.296;10.560;2023-06-01T09:29:29;22.50;95.50
9193;DHT22;4631;49.296;10.560;2023-06-01T09:31:57;22.50;94.60
9193;DHT22;4631;49.296;10.560;2023-06-01T09:34:25;22.50;96.40
9193;DHT22;4631;49.296;10.560;2023-06-01T09:36:53;22.50;96.40
9193;DHT22;4631;49.296;10.560;2023-06-01T09:39:20;22.60;95.40
9193;DHT22;4631;49.296;10.560;2023-06-01T09:41:49;22.70;94.70
9193;DHT22;4631;49.296;10.560;2023-06-01T09:44:22;22.70;94.80
9193;DHT22;4631;49.296;10.560;2023-06-01T09:46:49;22.80;94.40
9193;DHT22;4631;49.296;10.560;2023-06-01T09:49:21;22.90;92.70
9193;DHT22;4631;49.296;10.560;2023-06-01T09:51:48;22.90;92.80
9193;DHT22;4631;49.296;10.560;2023-06-01T09:54:21;23.00;92.40
9193;DHT22;4631;49.296;10.560;2023-06-01T09:56:48;23.10;92.90
9193;DHT22;4631;49.296;10.560;2023-06-01T09:59:15;23.20;93.70
9193;DHT22;4631;49.296;10.560;2023-06-01T10:01:42;23.40;92.10
9193;DHT22;4631;49.296;10.560;2023-06-01T10:04:13;23.50;92.20
9193;DHT22;4631;49.296;10.560;2023-06-01T10:06:42;23.60;91.20
9193;DHT22;4631;49.296;10.560;2023-06-01T10:09:10;23.70;90.90
9193;DHT22;4631;49.296;10.560;2023-06-01T10:11:39;23.80;91.20
9193;DHT22;4631;49.296;10.560;2023-06-01T10:14:06;23.90;91.00
9193;DHT22;4631;49.296;10.560;2023-06-01T10:16:33;24.00;90.50
9193;DHT22;4631;49.296;10.560;2023-06-01T10:19:00;24.00;87.80
9193;DHT22;4631;49.296;10.560;2023-06-01T10:21:27;24.00;90.90
9193;DHT22;4631;49.296;10.560;2023-06-01T10:23:56;24.20;90.40
9193;DHT22;4631;49.296;10.560;2023-06-01T10:26:22;24.30;89.80
9193;DHT22;4631;49.296;10.560;2023-06-01T10:28:50;24.40;90.70
9193;DHT22;4631;49.296;10.560;2023-06-01T10:31:36;24.50;90.80
9193;DHT22;4631;49.296;10.560;2023-06-01T10:34:03;24.60;90.90
9193;DHT22;4631;49.296;10.560;2023-06-01T10:39:23;24.90;89.50
9193;DHT22;4631;49.296;10.560;2023-06-01T10:41:49;25.00;90.20
9193;DHT22;4631;49.296;10.560;2023-06-01T10:46:57;25.20;90.60
9193;DHT22;4631;49.296;10.560;2023-06-01T10:49:24;25.30;90.10
9193;DHT22;4631;49.296;10.560;2023-06-01T10:52:23;25.30;86.40
9193;DHT22;4631;49.296;10.560;2023-06-01T10:54:52;25.50;89.20
9193;DHT22;4631;49.296;10.560;2023-06-01T10:57:22;25.50;85.40
9193;DHT22;4631;49.296;10.560;2023-06-01T11:02:32;25.50;85.70
9193;DHT22;4631;49.296;10.560;2023-06-01T11:07:40;25.70;84.70
9193;DHT22;4631;49.296;10.560;2023-06-01T11:10:08;25.90;87.40
9193;DHT22;4631;49.296;10.560;2023-06-01T11:15:20;26.20;83.30
9193;DHT22;4631;49.296;10.560;2023-06-01T11:17:47;26.10;81.60
9193;DHT22;4631;49.296;10.560;2023-06-01T11:20:13;26.00;81.40
9193;DHT22;4631;49.296;10.560;2023-06-01T11:22:40;26.00;83.30
9193;DHT22;4631;49.296;10.560;2023-06-01T11:25:10;25.90;81.70
9193;DHT22;4631;49.296;10.560;2023-06-01T11:27:41;25.90;82.60
9193;DHT22;4631;49.296;10.560;2023-06-01T11:30:08;25.80;83.40
9193;DHT22;4631;49.296;10.560;2023-06-01T11:32:36;25.90;85.00
9193;DHT22;4631;49.296;10.560;2023-06-01T11:35:15;26.10;86.30
9193;DHT22;4631;49.296;10.560;2023-06-01T11:37:42;26.20;85.40
9193;DHT22;4631;49.296;10.560;2023-06-01T11:40:11;26.20;84.70
9193;DHT22;4631;49.296;10.560;2023-06-01T11:42:39;26.30;84.70
9193;DHT22;4631;49.296;10.560;2023-06-01T11:45:06;26.50;85.10
9193;DHT22;4631;49.296;10.560;2023-06-01T11:47:32;26.40;83.90
9193;DHT22;4631;49.296;10.560;2023-06-01T11:50:00;26.30;83.20
9193;DHT22;4631;49.296;10.560;2023-06-01T11:52:27;26.40;85.40
9193;DHT22;4631;49.296;10.560;2023-06-01T11:54:55;26.40;83.80
9193;DHT22;4631;49.296;10.560;2023-06-01T11:57:29;26.50;83.60
9193;DHT22;4631;49.296;10.560;2023-06-01T11:59:55;26.50;82.60
9193;DHT22;4631;49.296;10.560;2023-06-01T12:02:24;26.70;82.80
9193;DHT22;4631;49.296;10.560;2023-06-01T12:04:55;26.80;80.50
9193;DHT22;4631;49.296;10.560;2023-06-01T12:07:22;26.90;79.90
9193;DHT22;4631;49.296;10.560;2023-06-01T12:09:49;27.10;81.40
9193;DHT22;4631;49.296;10.560;2023-06-01T12:12:17;27.20;80.40
9193;DHT22;4631;49.296;10.560;2023-06-01T12:14:45;27.20;81.80
9193;DHT22;4631;49.296;10.560;2023-06-01T12:17:11;27.30;80.70
9193;DHT22;4631;49.296;10.560;2023-06-01T12:19:44;27.40;80.60
9193;DHT22;4631;49.296;10.560;2023-06-01T12:22:11;27.50;81.00
9193;DHT22;4631;49.296;10.560;2023-06-01T12:24:37;27.50;79.00
9193;DHT22;4631;49.296;10.560;2023-06-01T12:27:12;27.50;79.10
9193;DHT22;4631;49.296;10.560;2023-06-01T12:29:39;27.50;80.50
9193;DHT22;4631;49.296;10.560;2023-06-01T12:32:08;27.50;80.20
9193;DHT22;4631;49.296;10.560;2023-06-01T12:34:35;27.50;79.90
9193;DHT22;4631;49.296;10.560;2023-06-01T12:37:15;27.50;80.70
9193;DHT22;4631;49.296;10.560;2023-06-01T12:39:42;27.50;78.50
9193;DHT22;4631;49.296;10.560;2023-06-01T12:42:09;27.40;76.70
9193;DHT22;4631;49.296;10.560;2023-06-01T12:44:37;27.40;78.40
9193;DHT22;4631;49.296;10.560;2023-06-01T12:47:07;27.40;77.40
9193;DHT22;4631;49.296;10.560;2023-06-01T12:49:34;27.60;79.20
9193;DHT22;4631;49.296;10.560;2023-06-01T12:52:03;27.80;77.30
9193;DHT22;4631;49.296;10.560;2023-06-01T12:54:30;27.80;75.60
9193;DHT22;4631;49.296;10.560;2023-06-01T12:56:56;27.90;76.50
9193;DHT22;4631;49.296;10.560;2023-06-01T12:59:23;27.90;78.80
9193;DHT22;4631;49.296;10.560;2023-06-01T13:01:50;27.90;79.30
9193;DHT22;4631;49.296;10.560;2023-06-01T13:04:18;28.00;77.90
9193;DHT22;4631;49.296;10.560;2023-06-01T13:06:44;27.90;77.30
9193;DHT22;4631;49.296;10.560;2023-06-01T13:09:11;28.00;74.10
9193;DHT22;4631;49.296;10.560;2023-06-01T13:11:39;28.10;73.30
9193;DHT22;4631;49.296;10.560;2023-06-01T13:14:06;28.20;73.80
9193;DHT22;4631;49.296;10.560;2023-06-01T13:16:33;28.30;75.00
9193;DHT22;4631;49.296;10.560;2023-06-01T13:18:59;28.40;75.60
9193;DHT22;4631;49.296;10.560;2023-06-01T13:21:27;28.50;72.90
9193;DHT22;4631;49.296;10.560;2023-06-01T13:23:54;28.60;73.50
9193;DHT22;4631;49.296;10.560;2023-06-01T13:26:21;28.60;73.70
9193;DHT22;4631;49.296;10.560;2023-06-01T13:28:50;28.50;73.40
9193;DHT22;4631;49.296;10.560;2023-06-01T13:31:17;28.40;73.90
9193;DHT22;4631;49.296;10.560;2023-06-01T13:33:44;28.60;73.30
9193;DHT22;4631;49.296;10.560;2023-06-01T13:36:11;28.60;73.30
9193;DHT22;4631;49.296;10.560;2023-06-01T13:38:39;28.90;75.40
9193;DHT22;4631;49.296;10.560;2023-06-01T13:41:06;29.10;74.10
9193;DHT22;4631;49.296;10.560;2023-06-01T13:43:32;29.40;72.60
9193;DHT22;4631;49.296;10.560;2023-06-01T13:45:59;29.50;70.00
9193;DHT22;4631;49.296;10.560;2023-06-01T13:48:27;29.70;70.00
9193;DHT22;4631;49.296;10.560;2023-06-01T13:50:53;29.70;68.80
9193;DHT22;4631;49.296;10.560;2023-06-01T13:53:20;29.70;66.50
9193;DHT22;4631;49.296;10.560;2023-06-01T13:55:49;29.60;67.80
9193;DHT22;4631;49.296;10.560;2023-06-01T13:58:15;29.70;66.50
9193;DHT22;4631;49.296;10.560;2023-06-01T14:00:42;29.80;68.50
9193;DHT22;4631;49.296;10.560;2023-06-01T14:03:09;30.00;68.10
9193;DHT22;4631;49.296;10.560;2023-06-01T14:05:36;30.00;68.60
9193;DHT22;4631;49.296;10.560;2023-06-01T14:08:03;30.00;66.00
9193;DHT22;4631;49.296;10.560;2023-06-01T14:10:30;30.20;68.90
9193;DHT22;4631;49.296;10.560;2023-06-01T14:12:58;30.40;65.90
9193;DHT22;4631;49.296;10.560;2023-06-01T14:15:24;30.60;65.90
9193;DHT22;4631;49.296;10.560;2023-06-01T14:17:51;30.80;66.50
9193;DHT22;4631;49.296;10.560;2023-06-01T14:20:17;30.80;68.80
9193;DHT22;4631;49.296;10.560;2023-06-01T14:22:44;30.80;67.20
9193;DHT22;4631;49.296;10.560;2023-06-01T14:25:11;30.60;64.90
9193;DHT22;4631;49.296;10.560;2023-06-01T14:27:38;30.40;65.70
9193;DHT22;4631;49.296;10.560;2023-06-01T14:30:07;30.20;67.80
9193;DHT22;4631;49.296;10.560;2023-06-01T14:32:34;30.20;68.60
9193;DHT22;4631;49.296;10.560;2023-06-01T14:35:01;30.30;68.30
9193;DHT22;4631;49.296;10.560;2023-06-01T14:37:34;30.40;67.70
9193;DHT22;4631;49.296;10.560;2023-06-01T14:40:01;30.50;65.90
9193;DHT22;4631;49.296;10.560;2023-06-01T14:42:27;30.40;66.00
9193;DHT22;4631;49.296;10.560;2023-06-01T14:44:54;30.40;65.00
9193;DHT22;4631;49.296;10.560;2023-06-01T14:47:22;30.20;65.60
9193;DHT22;4631;49.296;10.560;2023-06-01T14:49:48;30.20;64.50
9193;DHT22;4631;49.296;10.560;2023-06-01T14:52:15;30.00;67.00
9193;DHT22;4631;49.296;10.560;2023-06-01T14:54:42;30.10;67.20
9193;DHT22;4631;49.296;10.560;2023-06-01T14:57:08;30.10;65.00
9193;DHT22;4631;49.296;10.560;2023-06-01T14:59:35;30.10;64.60
9193;DHT22;4631;49.296;10.560;2023-06-01T15:02:02;30.00;65.60
9193;DHT22;4631;49.296;10.560;2023-06-01T15:04:30;30.00;68.10
9193;DHT22;4631;49.296;10.560;2023-06-01T15:06:57;29.80;67.10
9193;DHT22;4631;49.296;10.560;2023-06-01T15:09:23;29.70;66.00
9193;DHT22;4631;49.296;10.560;2023-06-01T15:11:50;29.90;67.30
9193;DHT22;4631;49.296;10.560;2023-06-01T15:14:17;30.00;66.20
9193;DHT22;4631;49.296;10.560;2023-06-01T15:16:43;30.00;66.00
9193;DHT22;4631;49.296;10.560;2023-06-01T15:19:10;30.00;66.00
9193;DHT22;4631;49.296;10.560;2023-06-01T15:21:38;29.80;67.10
9193;DHT22;4631;49.296;10.560;2023-06-01T15:24:05;29.80;66.50
9193;DHT22;4631;49.296;10.560;2023-06-01T15:26:31;29.70;68.70
9193;DHT22;4631;49.296;10.560;2023-06-01T15:28:58;29.40;68.70
9193;DHT22;4631;49.296;10.560;2023-06-01T15:31:25;29.30;68.30
9193;DHT22;4631;49.296;10.560;2023-06-01T15:33:51;29.10;68.30
9193;DHT22;4631;49.296;10.560;2023-06-01T15:36:18;29.10;69.90
9193;DHT22;4631;49.296;10.560;2023-06-01T15:38:46;28.90;72.60
9193;DHT22;4631;49.296;10.560;2023-06-01T15:41:12;28.70;73.40
9193;DHT22;4631;49.296;10.560;2023-06-01T15:43:39;28.60;74.10
9193;DHT22;4631;49.296;10.560;2023-06-01T15:46:05;28.50;74.10
9193;DHT22;4631;49.296;10.560;2023-06-01T15:48:32;28.40;73.20
9193;DHT22;4631;49.296;10.560;2023-06-01T15:50:59;28.20;73.30
9193;DHT22;4631;49.296;10.560;2023-06-01T15:53:25;28.20;73.40
9193;DHT22;4631;49.296;10.560;2023-06-01T15:55:53;28.00;72.90
9193;DHT22;4631;49.296;10.560;2023-06-01T15:58:20;27.90;72.70
9193;DHT22;4631;49.296;10.560;2023-06-01T16:00:47;27.80;73.30
9193;DHT22;4631;49.296;10.560;2023-06-01T16:03:13;27.70;75.20
9193;DHT22;4631;49.296;10.560;2023-06-01T16:05:40;27.80;75.30